sensor_id;sensor_type;location;lat;lon;timestamp;temperature;humidity
78516;SHT31;67815;51.990;5.688;2023-04-23T00:02:01;12.1;70.2
78516;SHT31;67815;51.990;5.688;2023-04-23T00:04:36;12.1;70.3
78516;SHT31;67815;51.990;5.688;2023-04-23T00:07:07;12.1;70.4
78516;SHT31;67815;51.990;5.688;2023-04-23T00:09:37;12.1;70.4
78516;SHT31;67815;51.990;5.688;2023-04-23T00:12:10;12.1;70.4
78516;SHT31;67815;51.990;5.688;2023-04-23T00:14:41;12.0;70.2
78516;SHT31;67815;51.990;5.688;2023-04-23T00:17:11;12.0;70.1
78516;SHT31;67815;51.990;5.688;2023-04-23T00:19:43;12.0;69.9
78516;SHT31;67815;51.990;5.688;2023-04-23T00:22:12;12.0;69.8
78516;SHT31;67815;51.990;5.688;2023-04-23T00:24:43;12.0;69.8
78516;SHT31;67815;51.990;5.688;2023-04-23T00:27:13;12.0;69.7
78516;SHT31;67815;51.990;5.688;2023-04-23T00:29:44;12.0;69.7
78516;SHT31;67815;51.990;5.688;2023-04-23T00:32:16;11.9;69.7
78516;SHT31;67815;51.990;5.688;2023-04-23T00:34:46;11.9;69.8
78516;SHT31;67815;51.990;5.688;2023-04-23T00:37:16;11.9;69.7
78516;SHT31;67815;51.990;5.688;2023-04-23T00:39:46;11.9;69.8
78516;SHT31;67815;51.990;5.688;2023-04-23T00:42:15;11.8;69.8
78516;SHT31;67815;51.990;5.688;2023-04-23T00:44:45;11.8;70.0
78516;SHT31;67815;51.990;5.688;2023-04-23T00:47:17;11.8;70.1
78516;SHT31;67815;51.990;5.688;2023-04-23T00:49:48;11.7;70.1
78516;SHT31;67815;51.990;5.688;2023-04-23T00:52:22;11.7;70.2
78516;SHT31;67815;51.990;5.688;2023-04-23T00:54:51;11.7;70.2
78516;SHT31;67815;51.990;5.688;2023-04-23T00:57:22;11.6;70.3
78516;SHT31;67815;51.990;5.688;2023-04-23T00:59:53;11.6;70.4
78516;SHT31;67815;51.990;5.688;2023-04-23T01:02:25;11.6;70.5
78516;SHT31;67815;51.990;5.688;2023-04-23T01:04:57;11.6;70.5
78516;SHT31;67815;51.990;5.688;2023-04-23T01:07:28;11.5;70.7
78516;SHT31;67815;51.990;5.688;2023-04-23T01:09:58;11.5;70.9
78516;SHT31;67815;51.990;5.688;2023-04-23T01:12:28;11.5;71.0
78516;SHT31;67815;51.990;5.688;2023-04-23T01:14:58;11.5;71.2
78516;SHT31;67815;51.990;5.688;2023-04-23T01:17:27;11.4;71.6
78516;SHT31;67815;51.990;5.688;2023-04-23T01:19:59;11.4;71.9
78516;SHT31;67815;51.990;5.688;2023-04-23T01:22:28;11.4;72.3
78516;SHT31;67815;51.990;5.688;2023-04-23T01:24:58;11.4;72.6
78516;SHT31;67815;51.990;5.688;2023-04-23T01:27:28;11.4;72.8
78516;SHT31;67815;51.990;5.688;2023-04-23T01:29:58;11.4;72.9
78516;SHT31;67815;51.990;5.688;2023-04-23T01:32:30;11.4;72.9
78516;SHT31;67815;51.990;5.688;2023-04-23T01:35:02;11.4;73.0
78516;SHT31;67815;51.990;5.688;2023-04-23T01:37:34;11.4;73.0
78516;SHT31;67815;51.990;5.688;2023-04-23T01:40:07;11.4;73.1
78516;SHT31;67815;51.990;5.688;2023-04-23T01:42:38;11.4;73.2
78516;SHT31;67815;51.990;5.688;2023-04-23T01:45:09;11.4;73.2
78516;SHT31;67815;51.990;5.688;2023-04-23T01:47:40;11.4;72.9
78516;SHT31;67815;51.990;5.688;2023-04-23T01:50:11;11.4;72.9
78516;SHT31;67815;51.990;5.688;2023-04-23T01:52:41;11.4;72.8
78516;SHT31;67815;51.990;5.688;2023-04-23T01:55:13;11.4;72.6
78516;SHT31;67815;51.990;5.688;2023-04-23T01:57:45;11.4;72.7
78516;SHT31;67815;51.990;5.688;2023-04-23T02:00:16;11.5;72.8
78516;SHT31;67815;51.990;5.688;2023-04-23T02:02:47;11.5;73.0
78516;SHT31;67815;51.990;5.688;2023-04-23T02:05:19;11.5;73.0
78516;SHT31;67815;51.990;5.688;2023-04-23T02:07:51;11.5;73.0
78516;SHT31;67815;51.990;5.688;2023-04-23T02:10:23;11.5;73.0
78516;SHT31;67815;51.990;5.688;2023-04-23T02:12:53;11.5;73.0
78516;SHT31;67815;51.990;5.688;2023-04-23T02:15:24;11.5;73.0
78516;SHT31;67815;51.990;5.688;2023-04-23T02:17:54;11.5;73.0
78516;SHT31;67815;51.990;5.688;2023-04-23T02:20:24;11.5;73.1
78516;SHT31;67815;51.990;5.688;2023-04-23T02:22:54;11.5;73.3
78516;SHT31;67815;51.990;5.688;2023-04-23T02:25:25;11.5;73.5
78516;SHT31;67815;51.990;5.688;2023-04-23T02:27:55;11.5;73.5
78516;SHT31;67815;51.990;5.688;2023-04-23T02:30:27;11.5;73.6
78516;SHT31;67815;51.990;5.688;2023-04-23T02:32:56;11.5;73.8
78516;SHT31;67815;51.990;5.688;2023-04-23T02:35:26;11.5;73.8
78516;SHT31;67815;51.990;5.688;2023-04-23T02:37:56;11.5;73.9
78516;SHT31;67815;51.990;5.688;2023-04-23T02:40:26;11.5;73.9
78516;SHT31;67815;51.990;5.688;2023-04-23T02:42:55;11.5;74.1
78516;SHT31;67815;51.990;5.688;2023-04-23T02:45:24;11.5;74.1
78516;SHT31;67815;51.990;5.688;2023-04-23T02:47:55;11.5;74.1
78516;SHT31;67815;51.990;5.688;2023-04-23T02:50:24;11.5;74.0
78516;SHT31;67815;51.990;5.688;2023-04-23T02:52:54;11.6;74.0
78516;SHT31;67815;51.990;5.688;2023-04-23T02:55:24;11.6;74.2
78516;SHT31;67815;51.990;5.688;2023-04-23T02:57:56;11.6;74.1
78516;SHT31;67815;51.990;5.688;2023-04-23T03:00:27;11.6;74.2
78516;SHT31;67815;51.990;5.688;2023-04-23T03:02:56;11.6;74.2
78516;SHT31;67815;51.990;5.688;2023-04-23T03:05:26;11.6;74.0
78516;SHT31;67815;51.990;5.688;2023-04-23T03:07:56;11.6;73.9
78516;SHT31;67815;51.990;5.688;2023-04-23T03:10:25;11.6;73.8
78516;SHT31;67815;51.990;5.688;2023-04-23T03:12:55;11.6;73.7
78516;SHT31;67815;51.990;5.688;2023-04-23T03:15:25;11.6;73.5
78516;SHT31;67815;51.990;5.688;2023-04-23T03:17:55;11.6;73.4
78516;SHT31;67815;51.990;5.688;2023-04-23T03:20:27;11.6;73.4
78516;SHT31;67815;51.990;5.688;2023-04-23T03:22:56;11.6;73.5
78516;SHT31;67815;51.990;5.688;2023-04-23T03:25:28;11.6;73.4
78516;SHT31;67815;51.990;5.688;2023-04-23T03:27:59;11.6;73.5
78516;SHT31;67815;51.990;5.688;2023-04-23T03:30:30;11.6;73.5
78516;SHT31;67815;51.990;5.688;2023-04-23T03:33:01;11.6;73.6
78516;SHT31;67815;51.990;5.688;2023-04-23T03:35:31;11.6;73.6
78516;SHT31;67815;51.990;5.688;2023-04-23T03:38:00;11.5;73.8
78516;SHT31;67815;51.990;5.688;2023-04-23T03:40:30;11.5;73.9
78516;SHT31;67815;51.990;5.688;2023-04-23T03:42:59;11.5;74.2
78516;SHT31;67815;51.990;5.688;2023-04-23T03:45:29;11.5;74.3
78516;SHT31;67815;51.990;5.688;2023-04-23T03:47:59;11.5;74.4
78516;SHT31;67815;51.990;5.688;2023-04-23T03:50:28;11.5;74.4
78516;SHT31;67815;51.990;5.688;2023-04-23T03:53:00;11.5;74.6
78516;SHT31;67815;51.990;5.688;2023-04-23T03:55:30;11.5;74.6
78516;SHT31;67815;51.990;5.688;2023-04-23T03:58:01;11.5;74.5
78516;SHT31;67815;51.990;5.688;2023-04-23T04:00:31;11.5;74.6
78516;SHT31;67815;51.990;5.688;2023-04-23T04:03:01;11.4;74.5
78516;SHT31;67815;51.990;5.688;2023-04-23T04:05:31;11.4;74.3
78516;SHT31;67815;51.990;5.688;2023-04-23T04:08:00;11.4;74.2
78516;SHT31;67815;51.990;5.688;2023-04-23T04:10:31;11.4;74.1
78516;SHT31;67815;51.990;5.688;2023-04-23T04:13:01;11.4;74.0
78516;SHT31;67815;51.990;5.688;2023-04-23T04:15:31;11.4;74.1
78516;SHT31;67815;51.990;5.688;2023-04-23T04:18:02;11.4;74.0
78516;SHT31;67815;51.990;5.688;2023-04-23T04:20:32;11.4;74.0
78516;SHT31;67815;51.990;5.688;2023-04-23T04:23:01;11.4;73.9
78516;SHT31;67815;51.990;5.688;2023-04-23T04:25:30;11.4;73.9
78516;SHT31;67815;51.990;5.688;2023-04-23T04:28:00;11.4;73.9
78516;SHT31;67815;51.990;5.688;2023-04-23T04:30:30;11.3;73.9
78516;SHT31;67815;51.990;5.688;2023-04-23T04:32:59;11.3;74.0
78516;SHT31;67815;51.990;5.688;2023-04-23T04:35:30;11.3;74.3
78516;SHT31;67815;51.990;5.688;2023-04-23T04:37:59;11.3;74.6
78516;SHT31;67815;51.990;5.688;2023-04-23T04:40:31;11.3;74.7
78516;SHT31;67815;51.990;5.688;2023-04-23T04:43:01;11.2;74.9
78516;SHT31;67815;51.990;5.688;2023-04-23T04:45:32;11.2;75.0
78516;SHT31;67815;51.990;5.688;2023-04-23T04:48:02;11.2;75.3
78516;SHT31;67815;51.990;5.688;2023-04-23T04:50:32;11.2;75.4
78516;SHT31;67815;51.990;5.688;2023-04-23T04:53:03;11.2;75.6
78516;SHT31;67815;51.990;5.688;2023-04-23T04:55:33;11.2;75.9
78516;SHT31;67815;51.990;5.688;2023-04-23T04:58:02;11.2;76.0
78516;SHT31;67815;51.990;5.688;2023-04-23T05:00:33;11.2;76.2
78516;SHT31;67815;51.990;5.688;2023-04-23T05:03:02;11.2;76.3
78516;SHT31;67815;51.990;5.688;2023-04-23T05:05:33;11.2;76.4
78516;SHT31;67815;51.990;5.688;2023-04-23T05:08:02;11.3;76.6
78516;SHT31;67815;51.990;5.688;2023-04-23T05:10:32;11.3;76.6
78516;SHT31;67815;51.990;5.688;2023-04-23T05:13:02;11.3;76.7
78516;SHT31;67815;51.990;5.688;2023-04-23T05:15:31;11.3;76.7
78516;SHT31;67815;51.990;5.688;2023-04-23T05:18:02;11.3;76.6
78516;SHT31;67815;51.990;5.688;2023-04-23T05:20:32;11.3;76.3
78516;SHT31;67815;51.990;5.688;2023-04-23T05:23:02;11.3;76.2
78516;SHT31;67815;51.990;5.688;2023-04-23T05:25:32;11.3;76.0
78516;SHT31;67815;51.990;5.688;2023-04-23T05:28:02;11.3;75.9
78516;SHT31;67815;51.990;5.688;2023-04-23T05:30:32;11.3;75.8
78516;SHT31;67815;51.990;5.688;2023-04-23T05:33:02;11.3;75.7
78516;SHT31;67815;51.990;5.688;2023-04-23T05:35:32;11.3;75.8
78516;SHT31;67815;51.990;5.688;2023-04-23T05:38:02;11.3;75.9
78516;SHT31;67815;51.990;5.688;2023-04-23T05:40:32;11.4;76.0
78516;SHT31;67815;51.990;5.688;2023-04-23T05:43:02;11.4;76.1
78516;SHT31;67815;51.990;5.688;2023-04-23T05:45:32;11.4;75.9
78516;SHT31;67815;51.990;5.688;2023-04-23T05:48:02;11.4;75.9
78516;SHT31;67815;51.990;5.688;2023-04-23T05:50:32;11.4;75.8
78516;SHT31;67815;51.990;5.688;2023-04-23T05:53:02;11.4;75.8
78516;SHT31;67815;51.990;5.688;2023-04-23T05:55:31;11.4;75.9
78516;SHT31;67815;51.990;5.688;2023-04-23T05:58:00;11.4;75.9
78516;SHT31;67815;51.990;5.688;2023-04-23T06:00:31;11.4;75.9
78516;SHT31;67815;51.990;5.688;2023-04-23T06:03:01;11.4;76.2
